Pine Galaxy — C6TT5 — position and weather

sailwx.info

Track history (hours):
 
Tides and Currents Weather Stations Pressure Air Temp Water Temp Dewpoint Dewpoint Depression Visibility Wind Speed Wind Dir Waves Ship Positions

Pine Galaxy

Last reported at 2017-Jan-19 20:32 UTC. Time now 2017-Jan-23 20:59 UTC.
Position N 37°46' W 122°20'.

Date/timePositionNaut miles runAvg speedWind from/ knotsBaromVisibWave heightAir tempDewpointWater temp
2017-Jan-19 20:32N 37°46' W 122°20'0 0.2
2017-Jan-19 19:32N 37°46' W 122°20'0 0.0
2017-Jan-19 18:32N 37°46' W 122°20'0 0.0
2017-Jan-19 17:32N 37°46' W 122°20'0 0.0
2017-Jan-19 16:33N 37°46' W 122°20'0 0.0
2017-Jan-19 15:33N 37°46' W 122°20'0 0.1
2017-Jan-19 14:32N 37°46' W 122°20'0 0.1
2017-Jan-19 13:33N 37°46' W 122°20'0 0.1
2017-Jan-19 12:33N 37°46' W 122°20'0 0.0
2017-Jan-19 11:33N 37°46' W 122°20'0 0.1
2017-Jan-19 10:33N 37°46' W 122°20'0 0.1
2017-Jan-19 09:33N 37°46' W 122°20'0 0.1
2017-Jan-19 08:34N 37°46' W 122°20'0 0.0
2017-Jan-19 07:33N 37°46' W 122°20'0 0.1
2017-Jan-19 06:33N 37°46' W 122°20'0 0.0
2017-Jan-19 05:33N 37°46' W 122°20'0 0.0
2017-Jan-19 04:34N 37°46' W 122°20'0 0.0
2017-Jan-19 03:33N 37°46' W 122°20'0 0.1
2017-Jan-19 02:33N 37°46' W 122°21'0 0.0
2017-Jan-19 01:33N 37°46' W 122°20'0 0.0
2017-Jan-19 00:08N 37°46' W 122°21'0 0.2
2017-Jan-18 23:33N 37°46' W 122°20'8 8.3
2017-Jan-18 22:33N 37°53' W 122°26'1111.2
2017-Jan-18 21:33N 38°03' W 122°19'1511.9
2017-Jan-18 20:20N 38°04' W 122°00'810.1
2017-Jan-18 19:33N 38°02' W 121°51'9 8.6
2017-Jan-18 18:34N 38°05' W 121°41'8 7.4
2017-Jan-18 17:31N 38°03' W 121°31'7 7.3
2017-Jan-18 16:33N 37°59' W 121°24'4 4.1
2017-Jan-18 15:34N 37°57' W 121°19'0 0.0
2017-Jan-18 14:33N 37°57' W 121°19'0 0.0
2017-Jan-18 13:33N 37°57' W 121°19'0 0.0
2017-Jan-18 12:33N 37°57' W 121°19'0 0.0
2017-Jan-18 11:33N 37°57' W 121°19'0 0.0
2017-Jan-18 10:33N 37°57' W 121°19'0 0.0
2017-Jan-18 09:33N 37°57' W 121°19'0 0.0
2017-Jan-18 08:33N 37°57' W 121°19'0 0.0
2017-Jan-18 07:33N 37°57' W 121°19'0 0.0
2017-Jan-18 06:33N 37°57' W 121°19'0 0.0
2017-Jan-18 05:33N 37°57' W 121°19'0 0.0
2017-Jan-18 04:33N 37°57' W 121°19'0 0.0
2017-Jan-18 03:33N 37°57' W 121°19'0 0.0
2017-Jan-18 02:33N 37°57' W 121°19'0 0.0
2017-Jan-18 01:33N 37°57' W 121°19'0 0.0
2017-Jan-18 00:33N 37°57' W 121°19'0 0.0
2017-Jan-17 23:33N 37°57' W 121°19'0 0.0
2017-Jan-17 21:32N 37°57' W 121°19'0 0.0
2017-Jan-17 20:32N 37°57' W 121°19'0 0.0
2017-Jan-17 19:32N 37°57' W 121°19'0 0.0
2017-Jan-17 18:32N 37°57' W 121°19'0 0.0
2017-Jan-17 17:32N 37°57' W 121°19'0 0.0
2017-Jan-17 16:32N 37°57' W 121°19'0 0.0
2017-Jan-17 15:32N 37°57' W 121°19'0 0.0
2017-Jan-17 14:32N 37°57' W 121°19'0 0.0
2017-Jan-17 13:32N 37°57' W 121°19'0 0.0
2017-Jan-17 12:32N 37°57' W 121°19'0 0.0
2017-Jan-17 11:32N 37°57' W 121°19'0 0.0
2017-Jan-17 10:32N 37°57' W 121°19'0 0.0
2017-Jan-17 09:32N 37°57' W 121°19'0 0.0
2017-Jan-17 08:32N 37°57' W 121°19'0 0.0
2017-Jan-17 07:32N 37°57' W 121°19'0 0.0
2017-Jan-17 06:32N 37°57' W 121°19'0 0.0
2017-Jan-17 05:32N 37°57' W 121°19'0 0.0
2017-Jan-17 04:32N 37°57' W 121°19'0 0.0
2017-Jan-17 03:32N 37°57' W 121°19'0 0.0
2017-Jan-17 02:33N 37°57' W 121°19'20 2.4
2017-Jan-16 18:17N 38°02' W 121°43'6 8.4
2017-Jan-16 17:33N 38°02' W 121°51'10 7.9
2017-Jan-16 16:20N 38°04' W 122°03'6 7.6
2017-Jan-16 15:32N 38°03' W 122°11'9 9.5
2017-Jan-16 14:33N 38°02' W 122°22'9 9.3
2017-Jan-16 13:34N 37°53' W 122°26'8 7.7
2017-Jan-16 12:33N 37°47' W 122°32'10 9.8
2017-Jan-16 11:33N 37°43' W 122°43'6 6.3
2017-Jan-16 10:33N 37°39' W 122°50'9 8.6
2017-Jan-16 09:33N 37°34' W 122°59'10 9.6
2017-Jan-16 08:31N 37°32' W 123°11'1111.7
2017-Jan-16 07:33N 37°34' W 123°25'1211.9
2017-Jan-16 06:34N 37°36' W 123°40'1212.2
2017-Jan-16 05:33N 37°39' W 123°55'1212.3
2017-Jan-16 04:33N 37°41' W 124°10'1212.1
2017-Jan-16 03:33N 37°43' W 124°25'1010.5
2017-Jan-16 02:33N 37°46' W 124°38'1412.3
2017-Jan-16 01:24N 37°49' W 124°56'1112.0
2017-Jan-16 00:29N 37°50' W 125°10'2412.4
2017-Jan-15 22:33N 37°54' W 125°39'1411.8
2017-Jan-15 21:22N 37°57' W 125°57'1011.6
2017-Jan-15 20:32N 37°59' W 126°09'  
Track history (hours):
 
Tides and Currents Weather Stations Pressure Air Temp Water Temp Dewpoint Dewpoint Depression Visibility Wind Speed Wind Dir Waves Ship Positions

Pine Galaxy

Last reported at 2017-Jan-19 20:32 UTC. Time now 2017-Jan-23 20:59 UTC.
Position N 37°46' W 122°20'.

Date/timePositionNaut miles runAvg speedWind from/ knotsBaromVisibWave heightAir tempDewpointWater temp
2017-Jan-19 20:32N 37°46' W 122°20'0 0.2
2017-Jan-19 19:32N 37°46' W 122°20'0 0.0
2017-Jan-19 18:32N 37°46' W 122°20'0 0.0
2017-Jan-19 17:32N 37°46' W 122°20'0 0.0
2017-Jan-19 16:33N 37°46' W 122°20'0 0.0
2017-Jan-19 15:33N 37°46' W 122°20'0 0.1
2017-Jan-19 14:32N 37°46' W 122°20'0 0.1
2017-Jan-19 13:33N 37°46' W 122°20'0 0.1
2017-Jan-19 12:33N 37°46' W 122°20'0 0.0
2017-Jan-19 11:33N 37°46' W 122°20'0 0.1
2017-Jan-19 10:33N 37°46' W 122°20'0 0.1
2017-Jan-19 09:33N 37°46' W 122°20'0 0.1
2017-Jan-19 08:34N 37°46' W 122°20'0 0.0
2017-Jan-19 07:33N 37°46' W 122°20'0 0.1
2017-Jan-19 06:33N 37°46' W 122°20'0 0.0
2017-Jan-19 05:33N 37°46' W 122°20'0 0.0
2017-Jan-19 04:34N 37°46' W 122°20'0 0.0
2017-Jan-19 03:33N 37°46' W 122°20'0 0.1
2017-Jan-19 02:33N 37°46' W 122°21'0 0.0
2017-Jan-19 01:33N 37°46' W 122°20'0 0.0
2017-Jan-19 00:08N 37°46' W 122°21'0 0.2
2017-Jan-18 23:33N 37°46' W 122°20'8 8.3
2017-Jan-18 22:33N 37°53' W 122°26'1111.2
2017-Jan-18 21:33N 38°03' W 122°19'1511.9
2017-Jan-18 20:20N 38°04' W 122°00'810.1
2017-Jan-18 19:33N 38°02' W 121°51'9 8.6
2017-Jan-18 18:34N 38°05' W 121°41'8 7.4
2017-Jan-18 17:31N 38°03' W 121°31'7 7.3
2017-Jan-18 16:33N 37°59' W 121°24'4 4.1
2017-Jan-18 15:34N 37°57' W 121°19'0 0.0
2017-Jan-18 14:33N 37°57' W 121°19'0 0.0
2017-Jan-18 13:33N 37°57' W 121°19'0 0.0
2017-Jan-18 12:33N 37°57' W 121°19'0 0.0
2017-Jan-18 11:33N 37°57' W 121°19'0 0.0
2017-Jan-18 10:33N 37°57' W 121°19'0 0.0
2017-Jan-18 09:33N 37°57' W 121°19'0 0.0
2017-Jan-18 08:33N 37°57' W 121°19'0 0.0
2017-Jan-18 07:33N 37°57' W 121°19'0 0.0
2017-Jan-18 06:33N 37°57' W 121°19'0 0.0
2017-Jan-18 05:33N 37°57' W 121°19'0 0.0
2017-Jan-18 04:33N 37°57' W 121°19'0 0.0
2017-Jan-18 03:33N 37°57' W 121°19'0 0.0
2017-Jan-18 02:33N 37°57' W 121°19'0 0.0
2017-Jan-18 01:33N 37°57' W 121°19'0 0.0
2017-Jan-18 00:33N 37°57' W 121°19'0 0.0
2017-Jan-17 23:33N 37°57' W 121°19'0 0.0
2017-Jan-17 21:32N 37°57' W 121°19'0 0.0
2017-Jan-17 20:32N 37°57' W 121°19'0 0.0
2017-Jan-17 19:32N 37°57' W 121°19'0 0.0
2017-Jan-17 18:32N 37°57' W 121°19'0 0.0
2017-Jan-17 17:32N 37°57' W 121°19'0 0.0
2017-Jan-17 16:32N 37°57' W 121°19'0 0.0
2017-Jan-17 15:32N 37°57' W 121°19'0 0.0
2017-Jan-17 14:32N 37°57' W 121°19'0 0.0
2017-Jan-17 13:32N 37°57' W 121°19'0 0.0
2017-Jan-17 12:32N 37°57' W 121°19'0 0.0
2017-Jan-17 11:32N 37°57' W 121°19'0 0.0
2017-Jan-17 10:32N 37°57' W 121°19'0 0.0
2017-Jan-17 09:32N 37°57' W 121°19'0 0.0
2017-Jan-17 08:32N 37°57' W 121°19'0 0.0
2017-Jan-17 07:32N 37°57' W 121°19'0 0.0
2017-Jan-17 06:32N 37°57' W 121°19'0 0.0
2017-Jan-17 05:32N 37°57' W 121°19'0 0.0
2017-Jan-17 04:32N 37°57' W 121°19'0 0.0
2017-Jan-17 03:32N 37°57' W 121°19'0 0.0
2017-Jan-17 02:33N 37°57' W 121°19'20 2.4
2017-Jan-16 18:17N 38°02' W 121°43'6 8.4
2017-Jan-16 17:33N 38°02' W 121°51'10 7.9
2017-Jan-16 16:20N 38°04' W 122°03'6 7.6
2017-Jan-16 15:32N 38°03' W 122°11'9 9.5
2017-Jan-16 14:33N 38°02' W 122°22'9 9.3
2017-Jan-16 13:34N 37°53' W 122°26'8 7.7
2017-Jan-16 12:33N 37°47' W 122°32'10 9.8
2017-Jan-16 11:33N 37°43' W 122°43'6 6.3
2017-Jan-16 10:33N 37°39' W 122°50'9 8.6
2017-Jan-16 09:33N 37°34' W 122°59'10 9.6
2017-Jan-16 08:31N 37°32' W 123°11'1111.7
2017-Jan-16 07:33N 37°34' W 123°25'1211.9
2017-Jan-16 06:34N 37°36' W 123°40'1212.2
2017-Jan-16 05:33N 37°39' W 123°55'1212.3
2017-Jan-16 04:33N 37°41' W 124°10'1212.1
2017-Jan-16 03:33N 37°43' W 124°25'1010.5
2017-Jan-16 02:33N 37°46' W 124°38'1412.3
2017-Jan-16 01:24N 37°49' W 124°56'1112.0
2017-Jan-16 00:29N 37°50' W 125°10'2412.4
2017-Jan-15 22:33N 37°54' W 125°39'1411.8
2017-Jan-15 21:22N 37°57' W 125°57'1011.6
2017-Jan-15 20:32N 37°59' W 126°09'  

Dump ship's entire track history